Time;durP1;ratioP1;P1;durP2;ratioP2;P2;SDS_P1;SDS_P2;PMS_P1;PMS_P2;Temp;Humidity;BMP_temperature;BMP_pressure;BME280_temperature;BME280_humidity;BME280_pressure;Samples;Min_cycle;Max_cycle;Signal;HPM_P1;HPM_P2
2022/10/08 00:01:16;;;;;;;22.35;12.10;;;15.10;99.90;;;14.25;100.00;97612.69;5032344;28;20426;-79
2022/10/08 00:03:46;;;;;;;19.60;11.95;;;15.00;99.90;;;14.23;100.00;97623.63;5031834;28;20404;-79
2022/10/08 00:06:16;;;;;;;27.70;11.27;;;15.00;99.90;;;14.20;100.00;97615.38;5031171;28;20391;-79
2022/10/08 00:08:48;;;;;;;19.35;11.60;;;15.00;99.90;;;14.16;100.00;97614.31;5032050;28;20807;-79
2022/10/08 00:11:17;;;;;;;21.35;12.07;;;14.90;99.90;;;14.11;100.00;97609.78;5032046;28;20908;-79
2022/10/08 00:13:46;;;;;;;23.98;11.82;;;14.90;99.90;;;14.12;100.00;97607.94;5031640;28;20900;-79
2022/10/08 00:16:17;;;;;;;22.33;12.75;;;14.90;99.90;;;14.04;100.00;97613.78;5031969;28;20403;-79
2022/10/08 00:18:46;;;;;;;24.90;13.02;;;14.80;99.90;;;13.99;100.00;97611.91;5031852;28;20884;-79
2022/10/08 00:21:15;;;;;;;22.20;12.38;;;14.70;99.90;;;13.98;100.00;97617.53;5031987;28;20403;-79
2022/10/08 00:23:42;;;;;;;22.45;13.40;;;14.80;99.90;;;13.98;100.00;97614.88;5031395;28;20443;-79
2022/10/08 00:26:09;;;;;;;19.52;12.80;;;14.80;99.90;;;13.94;100.00;97614.59;5031811;28;20407;-79
2022/10/08 00:28:37;;;;;;;22.05;12.38;;;14.70;99.90;;;13.95;100.00;97621.50;5031695;28;20907;-79
2022/10/08 00:31:09;;;;;;;22.50;12.00;;;14.70;99.90;;;13.90;100.00;97617.00;5031760;28;20824;-79
2022/10/08 00:33:36;;;;;;;21.80;12.13;;;14.70;99.90;;;13.93;100.00;97618.31;5031359;28;20408;-79
2022/10/08 00:36:06;;;;;;;17.05;11.52;;;14.70;99.90;;;13.88;100.00;97608.47;5031541;28;20410;-79
2022/10/08 00:38:34;;;;;;;18.63;11.57;;;14.70;99.90;;;13.87;100.00;97614.06;5046797;28;20801;-79
2022/10/08 00:41:00;;;;;;;17.08;11.10;;;14.60;99.90;;;13.84;100.00;97609.25;5031579;28;20434;-79
2022/10/08 00:43:42;;;;;;;19.88;11.68;;;14.60;99.90;;;13.81;100.00;97615.13;5031134;28;20431;-79
2022/10/08 00:46:24;;;;;;;19.20;11.93;;;14.60;99.90;;;13.77;100.00;97614.84;5031367;28;20403;-79
2022/10/08 00:48:53;;;;;;;17.30;11.20;;;14.60;99.90;;;13.77;100.00;97606.88;5031157;28;21046;-79
2022/10/08 00:51:22;;;;;;;20.60;11.47;;;14.60;99.90;;;13.75;100.00;97606.34;5031356;28;20399;-79
2022/10/08 00:53:49;;;;;;;20.33;11.63;;;14.60;99.90;;;13.74;100.00;97606.59;5030868;28;20403;-79
2022/10/08 00:56:15;;;;;;;16.67;10.85;;;14.50;99.90;;;13.71;100.00;97604.47;5031123;28;20870;-79
2022/10/08 00:58:42;;;;;;;20.35;11.63;;;14.50;99.90;;;13.70;100.00;97598.34;5031004;28;20553;-79
2022/10/08 01:01:08;;;;;;;24.83;11.98;;;14.50;99.90;;;13.67;100.00;97601.56;5031248;28;20889;-79
2022/10/08 01:03:34;;;;;;;17.40;11.55;;;14.50;99.90;;;13.66;100.00;97599.97;5030714;28;20399;-78
2022/10/08 01:06:13;;;;;;;20.08;11.85;;;14.50;99.90;;;13.69;100.00;97607.38;5031048;28;20410;-79
2022/10/08 01:08:47;;;;;;;21.65;11.85;;;14.50;99.90;;;13.70;100.00;97602.88;5030931;28;20392;-78
2022/10/08 01:11:35;;;;;;;19.90;11.95;;;14.50;99.90;;;13.68;100.00;97597.81;5031055;28;20881;-79
2022/10/08 01:14:11;;;;;;;21.83;11.73;;;14.50;99.90;;;13.71;100.00;97597.28;5030573;28;20411;-79
2022/10/08 01:16:49;;;;;;;18.58;11.30;;;14.50;99.90;;;13.71;100.00;97591.97;5030637;28;20400;-79
2022/10/08 01:19:41;;;;;;;17.73;11.15;;;14.50;99.90;;;13.74;100.00;97594.09;5030703;28;20421;-79
2022/10/08 01:22:23;;;;;;;23.90;13.07;;;14.50;99.90;;;13.78;100.00;97591.69;5030802;28;20454;-79
2022/10/08 01:27:49;;;;;;;23.67;11.30;;;14.50;99.90;;;13.75;100.00;97581.59;5030702;28;20525;-79
2022/10/08 01:30:17;;;;;;;23.00;11.65;;;14.50;99.90;;;13.74;100.00;97572.81;5030695;28;20765;-79
2022/10/08 01:32:50;;;;;;;17.42;11.40;;;14.50;99.90;;;13.73;100.00;97579.22;5030417;28;20536;-79
2022/10/08 01:35:23;;;;;;;28.27;12.00;;;14.50;99.90;;;13.73;100.00;97587.19;5030549;28;20395;-79
2022/10/08 01:37:54;;;;;;;19.90;11.00;;;14.50;99.90;;;13.75;100.00;97578.94;5030572;28;20418;-79
2022/10/08 01:40:28;;;;;;;18.95;11.18;;;14.50;99.90;;;13.76;100.00;97586.63;5030546;28;20434;-79
2022/10/08 01:42:57;;;;;;;15.35;10.52;;;14.50;99.90;;;13.75;100.00;97584.25;5030108;28;20824;-79
2022/10/08 01:45:30;;;;;;;25.92;11.45;;;14.50;99.90;;;13.73;100.00;97584.53;5030427;28;20414;-79
2022/10/08 01:47:59;;;;;;;19.60;11.85;;;14.50;99.90;;;13.76;100.00;97583.97;5030245;28;20959;-79
2022/10/08 01:50:32;;;;;;;17.98;10.57;;;14.50;99.90;;;13.76;100.00;97573.34;5030493;28;20403;-79
2022/10/08 01:53:03;;;;;;;17.33;10.43;;;14.60;99.90;;;13.78;100.00;97575.72;5029992;28;20396;-79
2022/10/08 01:55:34;;;;;;;19.30;10.80;;;14.60;99.90;;;13.76;100.00;97573.34;5030397;28;20432;-79
2022/10/08 01:58:06;;;;;;;19.70;11.18;;;14.50;99.90;;;13.74;100.00;97569.38;5030230;28;20415;-79
2022/10/08 02:00:34;;;;;;;20.40;10.65;;;14.50;99.90;;;13.76;100.00;97567.22;5030218;28;20916;-79
2022/10/08 02:03:01;;;;;;;21.08;11.10;;;14.50;99.90;;;13.73;100.00;97570.44;5029758;28;20407;-79
2022/10/08 02:05:33;;;;;;;22.33;10.97;;;14.50;99.90;;;13.69;100.00;97564.03;5030133;28;20400;-79
2022/10/08 02:08:00;;;;;;;26.92;10.73;;;14.50;99.90;;;13.66;100.00;97568.03;5030167;28;20403;-79
2022/10/08 02:10:27;;;;;;;18.02;10.57;;;14.50;99.90;;;13.71;100.00;97568.03;5030243;28;20437;-79
2022/10/08 02:12:53;;;;;;;19.02;10.35;;;14.50;99.90;;;13.71;100.00;97564.56;5029792;28;20454;-79
2022/10/08 02:15:28;;;;;;;20.40;10.63;;;14.50;99.90;;;13.67;100.00;97568.84;5029993;28;20943;-79
2022/10/08 02:18:06;;;;;;;25.88;10.65;;;14.50;99.90;;;13.66;100.00;97567.22;5030015;28;20419;-78
2022/10/08 02:20:36;;;;;;;18.20;10.90;;;14.40;99.90;;;13.65;100.00;97560.31;5030171;28;20403;-79
2022/10/08 02:23:10;;;;;;;20.70;9.68;;;14.40;99.90;;;13.74;100.00;97559.53;5029872;28;20498;-78
2022/10/08 02:25:45;;;;;;;21.92;10.50;;;14.50;99.90;;;13.79;100.00;97559.50;5030208;28;20438;-78
2022/10/08 02:28:19;;;;;;;19.58;9.77;;;14.50;99.90;;;13.76;100.00;97553.91;5030929;28;20927;-79
2022/10/08 02:30:52;;;;;;;23.42;10.13;;;14.50;99.90;;;13.71;100.00;97560.03;5034036;28;20461;-79
2022/10/08 02:33:25;;;;;;;23.42;10.57;;;14.50;99.90;;;13.69;100.00;97561.38;5033646;28;20480;-79
2022/10/08 02:35:56;;;;;;;18.42;9.23;;;14.50;99.90;;;13.74;100.00;97562.19;5033849;28;20888;-79
2022/10/08 02:38:28;;;;;;;20.52;10.02;;;14.50;99.90;;;13.70;100.00;97560.31;5049069;28;20773;-78
2022/10/08 02:40:58;;;;;;;19.83;9.82;;;14.50;99.90;;;13.67;100.00;97553.66;5033818;28;20430;-79
2022/10/08 02:43:30;;;;;;;24.42;10.45;;;14.50;99.90;;;13.73;100.00;97559.78;5033431;28;20407;-79
2022/10/08 02:46:03;;;;;;;19.60;9.85;;;14.50;99.90;;;13.70;100.00;97565.63;5033555;28;20888;-79
2022/10/08 02:48:31;;;;;;;18.27;9.73;;;14.50;99.90;;;13.67;100.00;97563.50;5033426;28;20435;-79
2022/10/08 02:51:09;;;;;;;18.83;9.68;;;14.50;99.90;;;13.68;100.00;97555.25;5033623;28;20904;-79
2022/10/08 02:53:38;;;;;;;20.20;9.32;;;14.40;99.90;;;13.63;100.00;97573.06;5033178;28;20804;-78
2022/10/08 02:56:11;;;;;;;15.47;9.40;;;14.40;99.90;;;13.64;100.00;97562.16;5033406;28;20478;-79
2022/10/08 02:58:37;;;;;;;21.42;8.90;;;14.40;99.90;;;13.63;100.00;97571.22;5033268;28;20421;-78
2022/10/08 03:01:12;;;;;;;16.70;9.15;;;14.40;99.90;;;13.62;100.00;97566.94;5033368;28;20414;-79
2022/10/08 03:03:47;;;;;;;21.08;9.40;;;14.40;99.90;;;13.62;100.00;97577.59;5032943;28;20409;-79
2022/10/08 03:06:14;;;;;;;18.55;9.25;;;14.40;99.90;;;13.62;100.00;97572.28;5033195;28;20395;-79
2022/10/08 03:08:45;;;;;;;18.70;9.60;;;14.40;99.90;;;13.62;100.00;97568.81;5031826;28;20792;-79
2022/10/08 03:11:12;;;;;;;15.73;9.35;;;14.40;99.90;;;13.61;100.00;97575.22;5033261;28;20403;-79
2022/10/08 03:13:43;;;;;;;20.60;8.90;;;14.40;99.90;;;13.59;100.00;97570.16;5032755;28;20873;-79
2022/10/08 03:16:17;;;;;;;18.33;9.32;;;14.40;99.90;;;13.61;100.00;97578.66;5033089;28;20889;-79
2022/10/08 03:18:44;;;;;;;17.33;8.95;;;14.40;99.90;;;13.59;100.00;97577.34;5032926;28;20451;-79
2022/10/08 03:21:12;;;;;;;15.00;9.20;;;14.40;99.90;;;13.55;100.00;97582.38;5048378;28;20406;-79
2022/10/08 03:23:39;;;;;;;14.75;9.23;;;14.40;99.90;;;13.52;100.00;97583.72;5032560;28;20426;-79
2022/10/08 03:26:05;;;;;;;14.50;9.55;;;14.30;99.90;;;13.55;100.00;97583.19;5031580;28;20419;-79
2022/10/08 03:28:31;;;;;;;16.40;10.40;;;14.30;99.90;;;13.53;100.00;97584.53;5032798;28;20761;-79
2022/10/08 03:30:57;;;;;;;15.20;9.95;;;14.30;99.90;;;13.51;100.00;97587.44;5032852;28;20442;-78
2022/10/08 03:33:24;;;;;;;15.83;9.43;;;14.30;99.90;;;13.52;100.00;97591.69;5032414;28;20445;-78
2022/10/08 03:35:50;;;;;;;17.38;9.60;;;14.30;99.90;;;13.54;100.00;97591.41;5032675;28;20406;-78
2022/10/08 03:38:16;;;;;;;17.00;8.93;;;14.30;99.90;;;13.53;100.00;97595.94;5032613;28;20414;-78
2022/10/08 03:40:42;;;;;;;15.90;9.32;;;14.40;99.90;;;13.55;100.00;97601.00;5032610;28;20410;-78
2022/10/08 03:43:08;;;;;;;20.20;8.90;;;14.30;99.90;;;13.53;100.00;97601.25;5032223;28;20856;-78
2022/10/08 03:45:34;;;;;;;16.10;9.43;;;14.40;99.90;;;13.63;100.00;97611.13;5032490;28;20444;-78
2022/10/08 03:48:00;;;;;;;15.75;8.85;;;14.40;99.90;;;13.62;100.00;97603.38;5051835;22;20433;-77
2022/10/08 03:50:27;;;;;;;14.03;9.23;;;14.40;99.90;;;13.62;100.00;97606.84;5052481;28;20791;-76
2022/10/08 03:52:53;;;;;;;13.40;7.95;;;14.40;99.90;;;13.65;100.00;97611.66;5051976;28;20402;-77
2022/10/08 03:55:19;;;;;;;15.10;8.77;;;14.50;99.90;;;13.66;100.00;97615.13;5052294;28;20412;-77
2022/10/08 03:57:45;;;;;;;16.77;9.05;;;14.50;99.90;;;13.68;100.00;97621.75;5047886;28;20498;-76
2022/10/08 04:00:12;;;;;;;13.65;8.45;;;14.40;99.90;;;13.69;100.00;97606.59;5032296;28;20401;-77
2022/10/08 04:02:38;;;;;;;16.27;7.53;;;14.50;99.90;;;13.69;100.00;97620.69;5032408;28;20912;-77
2022/10/08 04:05:05;;;;;;;12.48;8.15;;;14.50;99.90;;;13.69;100.00;97622.56;5031852;28;20443;-77
2022/10/08 04:07:32;;;;;;;14.07;8.57;;;14.50;99.90;;;13.67;100.00;97622.03;5032133;28;20793;-77
2022/10/08 04:09:58;;;;;;;15.57;9.18;;;14.50;99.90;;;13.66;100.00;97625.75;5032175;28;20768;-77
2022/10/08 04:12:24;;;;;;;15.83;8.50;;;14.50;99.90;;;13.61;100.00;97623.88;5031938;28;20446;-78
2022/10/08 04:14:49;;;;;;;20.23;8.80;;;14.40;99.90;;;13.59;100.00;97625.22;5031425;28;20746;-77
2022/10/08 04:17:15;;;;;;;16.00;8.68;;;14.40;99.90;;;13.57;100.00;97628.94;5031896;28;20498;-77
2022/10/08 04:19:41;;;;;;;15.35;7.78;;;14.40;99.90;;;13.55;100.00;97628.38;5030655;28;20415;-77
2022/10/08 04:22:07;;;;;;;13.85;8.25;;;14.40;99.90;;;13.53;100.00;97630.50;5027823;28;20482;-78
2022/10/08 04:24:34;;;;;;;15.43;7.97;;;14.40;99.90;;;13.50;100.00;97632.91;5030345;28;20415;-77
2022/10/08 04:27:00;;;;;;;20.57;9.13;;;14.30;99.90;;;13.47;100.00;97631.56;5030639;28;20539;-78
2022/10/08 04:29:26;;;;;;;16.40;8.05;;;14.30;99.90;;;13.46;100.00;97637.94;5022800;28;20424;-77
2022/10/08 04:31:52;;;;;;;12.45;7.65;;;14.30;99.90;;;13.46;100.00;97635.28;5025854;28;20415;-77
2022/10/08 04:34:18;;;;;;;13.80;8.38;;;14.20;99.90;;;13.43;100.00;97640.34;5030701;28;20916;-83
2022/10/08 04:36:44;;;;;;;11.30;7.95;;;14.30;99.90;;;13.43;100.00;97643.00;5029910;28;20438;-77
2022/10/08 04:39:09;;;;;;;12.73;7.88;;;14.30;99.90;;;13.41;100.00;97645.91;5031135;28;20423;-79
2022/10/08 04:41:37;;;;;;;13.93;8.48;;;14.20;99.90;;;13.41;100.00;97642.47;5031033;28;20910;-76
2022/10/08 04:44:03;;;;;;;15.43;8.73;;;14.20;99.90;;;13.38;100.00;97646.44;5030853;28;20407;-76
2022/10/08 04:46:28;;;;;;;12.48;8.15;;;14.20;99.90;;;13.36;100.00;97643.25;5027464;28;20418;-77
2022/10/08 04:48:55;;;;;;;16.70;8.23;;;14.20;99.90;;;13.34;100.00;97637.41;5027392;28;20920;-75
2022/10/08 04:51:24;;;;;;;12.48;7.93;;;14.10;99.90;;;13.38;100.00;97643.00;5020358;28;20402;-75
2022/10/08 04:53:51;;;;;;;10.93;8.07;;;14.20;99.90;;;13.39;100.00;97653.34;5021410;28;20416;-75
2022/10/08 04:56:20;;;;;;;12.88;8.50;;;14.20;99.90;;;13.42;100.00;97650.19;5020203;28;20401;-76
2022/10/08 04:58:48;;;;;;;11.10;7.78;;;14.20;99.90;;;13.40;100.00;97652.28;5017516;28;20837;-81
2022/10/08 05:01:17;;;;;;;16.40;8.70;;;14.20;99.90;;;13.40;100.00;97657.63;5020239;28;20465;-75
2022/10/08 05:03:45;;;;;;;17.35;8.50;;;14.30;99.90;;;13.38;100.00;97656.28;5024894;28;20490;-78
2022/10/08 05:06:14;;;;;;;19.75;8.45;;;14.20;99.90;;;13.34;100.00;97660.53;5027491;28;20943;-82
2022/10/08 05:08:40;;;;;;;18.58;9.48;;;14.20;99.90;;;13.32;100.00;97662.63;5022299;28;20399;-82
2022/10/08 05:11:06;;;;;;;18.90;10.27;;;14.10;99.90;;;13.29;100.00;97663.97;5022411;28;20446;-81
2022/10/08 05:13:32;;;;;;;15.97;9.60;;;14.10;99.90;;;13.27;100.00;97659.97;5022162;28;20957;-73
2022/10/08 05:16:04;;;;;;;19.25;10.02;;;14.10;99.90;;;13.29;100.00;97665.84;5019040;28;20463;-74
2022/10/08 05:18:31;;;;;;;15.70;9.75;;;14.10;99.90;;;13.26;100.00;97669.81;5018645;28;20415;-72
2022/10/08 05:21:02;;;;;;;20.75;10.35;;;14.10;99.90;;;13.23;100.00;97667.66;5022077;28;20403;-72
2022/10/08 05:23:28;;;;;;;22.70;10.07;;;14.10;99.90;;;13.23;100.00;97666.88;5021963;28;20405;-72
2022/10/08 05:25:54;;;;;;;23.13;10.00;;;14.00;99.90;;;13.18;100.00;97667.66;5017999;28;20768;-72
2022/10/08 05:28:20;;;;;;;17.15;9.80;;;14.00;99.90;;;13.14;100.00;97662.06;5021243;28;20399;-72
2022/10/08 05:30:46;;;;;;;18.40;9.73;;;14.00;99.90;;;13.11;100.00;97667.88;5022362;28;20922;-90
2022/10/08 05:33:13;;;;;;;17.67;8.80;;;14.00;99.90;;;13.10;100.00;97670.78;5020479;28;20415;-82
2022/10/08 05:35:39;;;;;;;17.95;9.10;;;13.90;99.90;;;13.08;100.00;97676.34;5019514;28;20463;-76
2022/10/08 05:38:05;;;;;;;19.92;9.00;;;13.90;99.90;;;13.07;100.00;97676.63;5019888;28;20407;-74
2022/10/08 05:40:31;;;;;;;18.77;9.10;;;13.90;99.90;;;13.03;100.00;97678.19;5025236;28;20782;-82
2022/10/08 05:42:57;;;;;;;15.80;8.23;;;13.80;99.90;;;12.99;100.00;97680.56;5024960;28;20415;-79
2022/10/08 05:45:23;;;;;;;17.53;8.63;;;13.80;99.90;;;12.96;100.00;97677.63;5018121;28;20402;-74
2022/10/08 05:47:49;;;;;;;19.17;8.60;;;13.80;99.90;;;12.93;100.00;97670.19;5019079;28;20499;-73
2022/10/08 05:50:16;;;;;;;18.08;8.30;;;13.70;99.90;;;12.90;100.00;97681.31;5018051;28;20427;-73
2022/10/08 05:52:42;;;;;;;15.48;8.32;;;13.70;99.90;;;12.87;100.00;97684.47;5019325;28;20861;-72
2022/10/08 05:55:08;;;;;;;15.23;7.77;;;13.70;99.90;;;12.84;100.00;97692.97;5019814;28;20408;-73
2022/10/08 05:57:34;;;;;;;19.88;8.63;;;13.70;99.90;;;12.82;100.00;97698.53;5018949;28;21894;-72
2022/10/08 06:00:00;;;;;;;15.00;8.00;;;13.60;99.90;;;12.77;100.00;97694.03;5020752;28;20415;-73
2022/10/08 06:02:26;;;;;;;20.02;7.80;;;13.60;99.90;;;12.76;100.00;97689.75;5019816;28;20439;-73
2022/10/08 06:04:52;;;;;;;17.45;8.23;;;13.60;99.90;;;12.74;100.00;97697.19;5022332;28;20403;-76
2022/10/08 06:07:19;;;;;;;15.05;8.32;;;13.60;99.90;;;12.75;100.00;97697.97;5022549;28;20406;-76
2022/10/08 06:09:45;;;;;;;17.65;8.00;;;13.60;99.90;;;12.73;100.00;97705.41;5025001;28;20827;-74
2022/10/08 06:12:12;;;;;;;27.67;8.93;;;13.60;99.90;;;12.73;100.00;97700.09;5023604;28;20474;-75
2022/10/08 06:14:38;;;;;;;14.93;7.60;;;13.60;99.90;;;12.72;100.00;97707.25;5022898;28;20768;-82
2022/10/08 06:17:04;;;;;;;17.05;7.55;;;13.60;99.90;;;12.71;100.00;97716.28;5024740;28;20428;-82
2022/10/08 06:19:32;;;;;;;11.57;7.00;;;13.60;99.90;;;12.71;100.00;97721.59;5021895;28;20501;-76
2022/10/08 06:21:58;;;;;;;20.83;8.05;;;13.50;99.90;;;12.70;100.00;97717.34;5024333;28;20968;-76
2022/10/08 06:24:25;;;;;;;17.57;7.60;;;13.50;99.90;;;12.68;100.00;97721.31;5029776;28;20403;-74
2022/10/08 06:26:51;;;;;;;16.05;7.20;;;13.50;99.90;;;12.70;100.00;97724.53;5032657;28;20413;-74
2022/10/08 06:29:18;;;;;;;12.63;7.18;;;13.50;99.90;;;12.71;100.00;97724.25;5033987;28;20399;-75
2022/10/08 06:31:44;;;;;;;12.77;7.03;;;13.60;99.90;;;12.72;100.00;97727.69;5034034;28;20438;-76
2022/10/08 06:34:13;;;;;;;18.65;7.13;;;13.60;99.90;;;12.73;100.00;97719.47;5033538;28;20399;-75
2022/10/08 06:36:40;;;;;;;15.70;7.00;;;13.60;99.90;;;12.76;100.00;97723.50;5033785;28;20457;-74
2022/10/08 06:39:09;;;;;;;15.48;6.97;;;13.60;99.90;;;12.78;100.00;97724.81;5033714;28;20991;-74
2022/10/08 06:41:37;;;;;;;9.35;6.38;;;13.60;99.90;;;12.81;100.00;97726.16;5033833;28;20449;-74
2022/10/08 06:44:06;;;;;;;12.05;6.63;;;13.70;99.90;;;12.83;100.00;97729.38;5033434;28;20410;-74
2022/10/08 06:46:33;;;;;;;17.60;7.40;;;13.60;99.90;;;12.82;100.00;97730.44;5033603;28;20414;-74
2022/10/08 06:49:01;;;;;;;12.98;6.50;;;13.60;99.90;;;12.85;100.00;97737.09;5033555;28;20395;-74
2022/10/08 06:51:28;;;;;;;13.75;6.57;;;13.70;99.90;;;12.88;100.00;97736.56;5033689;28;20896;-74
2022/10/08 06:53:56;;;;;;;13.05;6.30;;;13.70;99.90;;;12.90;100.00;97742.44;5031939;28;20422;-74
2022/10/08 06:56:28;;;;;;;13.13;6.40;;;13.70;99.90;;;12.92;100.00;97746.44;5029044;28;20476;-74
2022/10/08 06:59:00;;;;;;;10.50;5.75;;;13.80;99.90;;;12.96;100.00;97744.06;5024527;28;20942;-75
2022/10/08 07:01:29;;;;;;;16.90;6.18;;;13.80;99.90;;;13.00;100.00;97755.78;5031754;28;20502;-75
2022/10/08 07:03:57;;;;;;;9.38;5.63;;;13.80;99.90;;;13.05;100.00;97758.47;5032813;28;20407;-74
2022/10/08 07:06:24;;;;;;;13.93;5.90;;;13.80;99.90;;;13.09;100.00;97756.88;5033014;28;20405;-74
2022/10/08 07:08:52;;;;;;;9.68;5.82;;;13.90;99.90;;;13.13;100.00;97760.66;5029183;28;20403;-74
2022/10/08 07:11:33;;;;;;;12.02;5.45;;;13.90;99.90;;;13.20;100.00;97755.13;5025931;28;20451;-73
2022/10/08 07:14:21;;;;;;;14.35;5.65;;;14.00;99.90;;;13.25;100.00;97761.25;5024812;28;20509;-74
2022/10/08 07:17:19;;;;;;;11.40;5.40;;;14.10;99.90;;;13.32;100.00;97764.47;5029440;28;20800;-74
2022/10/08 07:19:44;;;;;;;9.88;5.13;;;14.10;99.90;;;13.40;100.00;97765.84;5032039;28;20862;-73
2022/10/08 07:22:22;;;;;;;10.02;5.22;;;14.20;99.90;;;13.46;100.00;97765.59;5032833;28;20426;-73
2022/10/08 07:24:48;;;;;;;10.80;5.03;;;14.30;99.90;;;13.53;100.00;97766.16;5032411;28;20486;-74
2022/10/08 07:27:15;;;;;;;10.80;5.18;;;14.30;99.90;;;13.60;100.00;97776.56;5032772;28;20399;-74
2022/10/08 07:29:43;;;;;;;11.05;5.30;;;14.40;99.90;;;13.67;100.00;97773.66;5032717;28;20402;-73
2022/10/08 07:32:09;;;;;;;9.27;4.65;;;14.50;99.90;;;13.73;100.00;97778.75;5032573;28;20403;-73
2022/10/08 07:34:35;;;;;;;15.07;5.68;;;14.50;99.90;;;13.79;100.00;97775.03;5031617;28;20621;-74
2022/10/08 07:37:01;;;;;;;11.60;4.85;;;14.60;99.90;;;13.86;100.00;97782.75;5048144;28;21068;-75
2022/10/08 07:39:27;;;;;;;13.90;4.88;;;14.60;99.90;;;13.94;100.00;97783.06;5028514;28;20427;-75
2022/10/08 07:41:52;;;;;;;10.02;4.35;;;14.70;99.90;;;14.02;100.00;97795.06;5027993;28;20465;-76
2022/10/08 07:44:19;;;;;;;9.00;4.40;;;14.80;99.90;;;14.06;100.00;97792.69;5029050;28;20415;-72
2022/10/08 07:46:48;;;;;;;11.95;4.47;;;14.80;99.90;;;14.14;100.00;97792.94;5032022;28;20399;-74
2022/10/08 07:49:15;;;;;;;10.05;4.40;;;14.90;99.90;;;14.17;100.00;97791.63;5031976;28;20404;-74
2022/10/08 07:51:41;;;;;;;7.45;3.67;;;14.90;99.90;;;14.24;100.00;97790.31;5031870;28;20896;-74
2022/10/08 07:54:12;;;;;;;14.63;4.30;;;15.00;99.90;;;14.25;100.00;97799.91;5031602;28;20551;-72
2022/10/08 07:56:38;;;;;;;14.80;4.82;;;15.00;99.90;;;14.35;100.00;97796.44;5031371;28;20409;-73
2022/10/08 07:59:22;;;;;;;8.33;3.60;;;15.10;99.90;;;14.47;100.00;97799.69;5031646;28;20419;-76
2022/10/08 08:01:50;;;;;;;12.00;4.63;;;15.20;99.90;;;14.45;100.00;97801.78;5030263;28;20773;-71
2022/10/08 08:04:16;;;;;;;13.85;4.22;;;15.20;99.90;;;14.57;100.00;97805.03;5030126;28;20419;-72
2022/10/08 08:06:51;;;;;;;11.13;3.83;;;15.30;99.90;;;14.59;100.00;97802.06;5016673;28;20412;-74
2022/10/08 08:09:17;;;;;;;11.63;4.30;;;15.30;99.90;;;14.65;99.21;97809.81;5024540;28;20449;-72
2022/10/08 08:11:44;;;;;;;13.10;4.60;;;15.40;99.90;;;14.62;96.90;97806.88;5030665;28;20403;-73
2022/10/08 08:14:11;;;;;;;15.60;4.47;;;15.40;99.90;;;14.61;96.35;97806.06;5031316;28;20820;-71
2022/10/08 08:16:37;;;;;;;10.20;3.88;;;15.40;99.90;;;14.61;95.63;97811.41;5031601;28;20403;-71
2022/10/08 08:19:05;;;;;;;9.32;3.58;;;15.30;99.90;;;14.61;91.45;97815.94;5031517;28;20461;-71
2022/10/08 08:21:34;;;;;;;11.27;3.60;;;15.30;99.90;;;14.57;91.25;97814.88;5031611;28;20453;-71
2022/10/08 08:24:04;;;;;;;10.20;3.58;;;15.30;99.90;;;14.50;90.68;97815.13;5031291;28;20411;-70
2022/10/08 08:26:34;;;;;;;7.50;3.10;;;15.30;99.90;;;14.47;93.74;97822.84;5030787;28;20757;-70
2022/10/08 08:29:03;;;;;;;13.98;4.10;;;15.20;99.90;;;14.45;95.21;97819.63;5031608;28;20403;-70
2022/10/08 08:31:31;;;;;;;11.40;3.65;;;15.20;99.90;;;14.50;96.44;97825.00;5031507;28;20410;-71
2022/10/08 08:33:59;;;;;;;9.23;3.25;;;15.20;99.90;;;14.62;97.26;97834.31;5030773;28;20434;-70
2022/10/08 08:36:29;;;;;;;17.00;3.72;;;15.30;99.90;;;14.65;95.78;97825.00;5031190;28;20407;-70
2022/10/08 08:38:56;;;;;;;15.55;4.07;;;15.40;99.90;;;14.68;93.30;97827.13;5031223;28;20544;-71
2022/10/08 08:41:44;;;;;;;11.10;3.50;;;15.40;99.90;;;14.77;94.89;97838.06;5031393;28;20403;-72
2022/10/08 08:44:17;;;;;;;14.40;3.78;;;15.50;99.90;;;14.92;91.55;97830.06;5015879;28;20828;-72
2022/10/08 08:46:47;;;;;;;8.95;2.80;;;15.60;99.90;;;14.91;91.08;97839.13;5031179;28;20403;-71
2022/10/08 08:49:20;;;;;;;8.88;2.90;;;15.70;99.90;;;14.97;92.71;97833.50;5025679;28;20426;-72
2022/10/08 08:51:48;;;;;;;19.20;3.97;;;15.70;99.90;;;15.06;90.29;97839.91;5025866;28;20418;-71
2022/10/08 08:54:14;;;;;;;13.32;3.10;;;15.80;99.90;;;15.10;86.33;97837.50;5030436;28;20438;-70
2022/10/08 08:56:40;;;;;;;8.82;3.20;;;15.80;99.90;;;15.09;88.48;97839.38;5028371;28;20461;-71
2022/10/08 08:59:23;;;;;;;12.77;3.88;;;15.80;99.90;;;15.07;87.88;97843.38;5018700;28;20588;-70
2022/10/08 09:01:52;;;;;;;12.88;3.38;;;15.80;99.90;;;15.14;86.90;97843.09;5022415;28;20396;-71
2022/10/08 09:04:28;;;;;;;14.57;3.00;;;15.90;99.90;;;15.13;85.05;97839.63;5030868;28;20900;-70
2022/10/08 09:06:58;;;;;;;11.52;3.05;;;15.90;99.90;;;15.18;86.72;97842.31;5031069;28;20753;-71
2022/10/08 09:09:32;;;;;;;8.35;2.65;;;15.90;99.90;;;15.29;89.50;97845.75;5030701;28;20407;-70
2022/10/08 09:11:58;;;;;;;10.57;2.97;;;16.00;99.90;;;15.40;89.75;97834.78;5031000;28;20460;-71
2022/10/08 09:14:35;;;;;;;10.55;3.17;;;16.10;99.90;;;15.54;87.87;97836.91;5030703;28;20403;-70
2022/10/08 09:17:14;;;;;;;12.30;3.05;;;16.20;99.90;;;15.62;85.15;97837.16;5030343;28;20809;-71
2022/10/08 09:19:40;;;;;;;12.02;3.00;;;16.30;99.90;;;15.75;87.22;97843.78;5030978;28;20422;-71
2022/10/08 09:22:21;;;;;;;14.27;3.63;;;16.40;99.90;;;15.77;76.83;97845.09;5030896;28;20407;-71
2022/10/08 09:24:52;;;;;;;11.18;2.80;;;16.50;99.90;;;15.81;80.23;97853.34;5030356;28;20403;-71
2022/10/08 09:27:18;;;;;;;7.93;2.45;;;16.50;99.90;;;15.86;84.21;97853.34;5030832;28;20387;-70
2022/10/08 09:29:44;;;;;;;14.80;3.47;;;16.50;99.90;;;15.95;81.37;97854.34;5030803;28;20502;-70
2022/10/08 09:32:17;;;;;;;10.45;2.90;;;16.60;99.90;;;15.96;81.67;97850.63;5030805;28;20395;-70
2022/10/08 09:34:44;;;;;;;12.95;3.17;;;16.70;99.90;;;15.91;77.46;97856.00;5030240;28;20399;-72
2022/10/08 09:37:21;;;;;;;11.15;3.10;;;16.60;99.90;;;16.02;79.67;97854.06;5030547;28;21103;-70
2022/10/08 09:40:17;;;;;;;10.48;2.90;;;16.60;99.90;;;16.12;77.18;97859.38;5030545;28;20453;-72
2022/10/08 09:42:43;;;;;;;8.50;2.67;;;16.70;99.90;;;16.11;79.26;97847.88;5023975;28;20410;-70
2022/10/08 09:45:32;;;;;;;8.20;2.47;;;16.80;99.90;;;16.22;82.76;97848.63;5030199;28;20482;-70
2022/10/08 09:48:21;;;;;;;10.33;2.90;;;16.90;99.90;;;16.17;76.27;97852.13;5046762;22;20411;-75
2022/10/08 09:50:53;;;;;;;13.75;3.08;;;16.90;99.90;;;16.12;77.59;97856.69;5050392;28;20409;-76
2022/10/08 09:53:24;;;;;;;11.60;2.80;;;16.90;99.90;;;16.16;77.00;97860.44;5049947;28;20887;-75
2022/10/08 09:55:54;;;;;;;10.13;2.63;;;16.80;99.90;;;16.14;77.09;97862.56;5065791;28;20752;-76
2022/10/08 09:58:21;;;;;;;12.35;2.50;;;16.80;99.90;;;16.15;78.09;97859.63;5044042;28;20494;-76
2022/10/08 10:01:02;;;;;;;12.50;3.03;;;16.80;99.90;;;16.20;78.14;97861.47;5030348;28;20402;-76
2022/10/08 10:03:29;;;;;;;13.15;2.85;;;16.90;99.90;;;16.14;75.83;97863.38;5028596;28;20874;-75
2022/10/08 10:05:58;;;;;;;11.23;2.97;;;16.80;99.90;;;16.06;74.62;97863.13;5030085;28;20432;-76
2022/10/08 10:08:54;;;;;;;9.35;2.80;;;16.70;99.40;;;15.81;73.88;97864.03;5030179;28;20802;-76
2022/10/08 10:11:32;;;;;;;7.85;2.40;;;16.50;98.10;;;15.72;78.78;97869.13;5030238;28;20486;-76
2022/10/08 10:14:08;;;;;;;10.02;2.67;;;16.40;99.90;;;15.66;80.76;97872.09;5029796;28;20457;-75
2022/10/08 10:16:38;;;;;;;13.85;2.90;;;16.40;99.90;;;15.62;79.67;97879.06;5028833;28;20407;-76
2022/10/08 10:19:12;;;;;;;13.85;3.47;;;16.40;99.90;;;15.60;80.85;97876.66;5030120;28;20598;-76